Time;durP1;ratioP1;P1;durP2;ratioP2;P2;SDS_P1;SDS_P2;PMS_P1;PMS_P2;Temp;Humidity;BMP_temperature;BMP_pressure;BME280_temperature;BME280_humidity;BME280_pressure;Samples;Min_cycle;Max_cycle;Signal;HPM_P1;HPM_P2
2023/01/17 00:02:29;;;;;;;20.30;18.40;;;;;;;2.98;96.41;95176.89;109888;1285;22241;-95
2023/01/17 00:14:06;;;;;;;21.80;19.70;;;;;;;2.92;96.69;95184.52;109882;1286;22335;-92
2023/01/17 00:16:39;;;;;;;21.30;19.30;;;;;;;2.95;96.77;95182.64;109822;1288;22678;-95
2023/01/17 01:35:42;;;;;;;29.10;26.60;;;;;;;2.73;96.33;95199.55;109939;1286;22069;-92
2023/01/17 01:38:10;;;;;;;26.60;24.20;;;;;;;2.74;96.09;95201.27;109967;1287;22576;-87
2023/01/17 01:40:43;;;;;;;27.30;25.00;;;;;;;2.76;96.32;95196.64;109968;1286;22194;-90
2023/01/17 01:43:21;;;;;;;26.40;24.00;;;;;;;2.80;95.92;95197.52;109919;1264;22212;-90
2023/01/17 01:45:56;;;;;;;27.10;24.40;;;;;;;2.83;96.13;95196.86;109986;1286;22125;-95
2023/01/17 01:54:22;;;;;;;27.20;24.70;;;;;;;2.80;96.30;95194.30;109777;1289;22243;-93
2023/01/17 01:56:56;;;;;;;27.30;24.80;;;;;;;2.84;96.14;95192.88;109870;1289;22213;-93
2023/01/17 02:02:48;;;;;;;31.60;28.70;;;;;;;2.85;95.90;95175.92;110081;1260;22465;-92
2023/01/17 02:05:28;;;;;;;29.30;26.60;;;;;;;2.96;95.96;95189.38;110023;1284;22163;-93
2023/01/17 02:08:01;;;;;;;28.30;25.80;;;;;;;2.97;95.96;95184.77;110010;1284;22137;-89
2023/01/17 02:10:32;;;;;;;29.80;27.20;;;;;;;2.96;95.68;95177.11;110050;1282;22234;-92
2023/01/17 02:13:04;;;;;;;26.80;24.40;;;;;;;2.93;95.56;95176.94;110026;1284;22212;-93
2023/01/17 02:15:40;;;;;;;25.60;23.20;;;;;;;2.88;95.14;95177.64;110025;1284;22201;-93
2023/01/17 02:18:46;;;;;;;24.50;22.20;;;;;;;2.87;95.31;95181.36;110023;1284;23103;-92
2023/01/17 02:21:21;;;;;;;;;;;;;;;2.86;95.11;95188.25;110050;1284;22279;-93
2023/01/17 02:24:01;;;;;;;26.10;23.70;;;;;;;2.79;95.16;95189.63;110052;1284;22204;-92
2023/01/17 02:26:43;;;;;;;27.80;25.40;;;;;;;2.70;95.09;95189.63;110013;1261;22276;-92
2023/01/17 02:32:51;;;;;;;28.00;25.50;;;;;;;2.54;95.33;95190.43;110025;1255;22173;31
2023/01/17 02:35:46;;;;;;;27.60;25.10;;;;;;;2.49;94.90;95194.14;109986;1286;21938;-90
2023/01/17 02:38:41;;;;;;;27.10;24.70;;;;;;;2.45;94.79;95197.27;110025;1286;22242;-93
2023/01/17 02:41:19;;;;;;;28.20;25.70;;;;;;;2.41;94.70;95190.02;110003;1259;23668;31
2023/01/17 02:43:49;;;;;;;24.80;22.30;;;;;;;2.35;94.64;95192.42;109940;1285;22253;-92
2023/01/17 02:46:18;;;;;;;25.70;23.50;;;;;;;2.26;94.71;95192.36;109866;1287;22223;-90
2023/01/17 02:48:47;;;;;;;25.90;23.50;;;;;;;2.17;94.71;95193.63;110015;1261;22180;-91
2023/01/17 02:54:43;;;;;;;23.40;21.40;;;;;;;2.04;94.62;95198.11;109866;1288;21913;-91
2023/01/17 03:01:25;;;;;;;21.00;19.10;;;;;;;1.89;93.87;95198.98;109951;1287;22181;-92
2023/01/17 03:04:02;;;;;;;25.60;23.20;;;;;;;1.65;93.77;95201.60;109982;1287;22229;-94
2023/01/17 03:06:40;;;;;;;25.20;23.00;;;;;;;1.42;93.90;95205.55;109975;1287;22138;-92
2023/01/17 03:09:09;;;;;;;31.60;28.90;;;;;;;1.30;94.05;95203.83;109962;1287;22113;-94
2023/01/17 03:11:37;;;;;;;27.50;24.80;;;;;;;1.28;94.12;95202.89;109994;1287;22298;-92
2023/01/17 03:14:06;;;;;;;36.90;33.30;;;;;;;1.28;94.32;95200.89;109958;1258;22110;-91
2023/01/17 03:16:35;;;;;;;31.10;28.20;;;;;;;1.28;94.07;95210.25;109950;1286;22170;-91
2023/01/17 03:19:03;;;;;;;33.00;29.90;;;;;;;1.28;94.26;95215.37;109984;1286;22256;-91
2023/01/17 03:21:32;;;;;;;29.90;27.30;;;;;;;1.25;94.37;95219.10;109974;1286;22077;-91
2023/01/17 03:24:01;;;;;;;31.60;28.80;;;;;;;1.21;94.39;95223.45;109949;1286;23054;-92
2023/01/17 03:26:30;;;;;;;30.10;27.40;;;;;;;1.18;94.37;95229.21;109944;1286;22238;-92
2023/01/17 03:28:58;;;;;;;26.40;24.00;;;;;;;1.18;94.47;95232.43;109842;1286;22177;-91
2023/01/17 03:31:26;;;;;;;26.60;24.20;;;;;;;1.18;93.85;95235.42;109929;1286;22188;-93
2023/01/17 03:33:54;;;;;;;28.80;26.10;;;;;;;1.13;93.89;95243.69;109916;1286;22965;-93
2023/01/17 03:36:22;;;;;;;31.00;28.20;;;;;;;1.13;94.06;95244.37;109899;1286;22406;-94
2023/01/17 03:38:51;;;;;;;31.90;29.00;;;;;;;1.11;94.13;95247.77;109900;1285;22231;-94
2023/01/17 03:41:20;;;;;;;31.30;28.60;;;;;;;1.08;94.05;95245.83;109938;1286;22586;-92
2023/01/17 03:44:45;;;;;;;36.70;33.40;;;;;;;1.04;93.93;95235.86;109968;1285;22134;-93
2023/01/17 03:47:13;;;;;;;29.20;26.30;;;;;;;0.98;93.91;95238.60;109909;1287;22254;-94
2023/01/17 03:49:44;;;;;;;28.60;26.10;;;;;;;1.01;94.13;95251.54;109908;1287;22269;-93
2023/01/17 03:52:12;;;;;;;27.80;25.30;;;;;;;1.03;94.06;95255.02;109990;1276;22224;-94
2023/01/17 03:54:40;;;;;;;27.00;24.70;;;;;;;1.04;94.06;95248.60;109854;1287;22540;-94
2023/01/17 03:57:09;;;;;;;28.80;26.30;;;;;;;1.00;93.68;95247.52;109956;1287;22229;-92
2023/01/17 03:59:37;;;;;;;29.00;26.40;;;;;;;0.90;93.49;95246.69;109887;1287;22286;-93
2023/01/17 04:02:06;;;;;;;28.20;25.60;;;;;;;0.73;93.46;95256.20;109832;1286;22240;-94
2023/01/17 04:04:34;;;;;;;32.60;29.90;;;;;;;0.60;93.47;95256.29;109914;1283;22213;-95
2023/01/17 04:07:59;;;;;;;33.30;30.40;;;;;;;0.53;93.53;95255.07;109917;1280;22914;-94
2023/01/17 04:10:27;;;;;;;33.40;30.50;;;;;;;0.49;93.59;95258.29;109858;1287;22229;-95
2023/01/17 04:12:56;;;;;;;36.50;33.30;;;;;;;0.46;93.68;95260.24;109826;1287;22312;-94
2023/01/17 04:15:24;;;;;;;45.90;41.50;;;;;;;0.40;93.63;95263.28;109763;1285;22234;-93
2023/01/17 04:17:52;;;;;;;43.40;39.40;;;;;;;0.33;93.71;95264.23;109876;1287;22231;-94
2023/01/17 04:20:30;;;;;;;34.70;31.40;;;;;;;0.25;93.53;95258.67;109899;1264;22121;-94
2023/01/17 04:22:59;;;;;;;31.70;28.80;;;;;;;0.18;93.39;95248.93;109869;1287;22206;-94
2023/01/17 04:25:29;;;;;;;30.10;27.40;;;;;;;0.10;93.36;95250.31;109877;1287;22289;-94
2023/01/17 04:31:16;;;;;;;36.30;33.20;;;;;;;-0.13;93.56;95233.14;109239;1294;22900;-91
2023/01/17 04:33:44;;;;;;;35.80;32.80;;;;;;;-0.18;93.65;95237.95;109548;1289;22182;-94
2023/01/17 04:39:57;;;;;;;34.10;31.20;;;;;;;-0.18;94.07;95241.70;109599;1289;22172;-93
2023/01/17 04:42:25;;;;;;;34.50;31.40;;;;;;;-0.14;94.20;95240.16;109510;1285;22184;-91
2023/01/17 04:44:53;;;;;;;33.70;30.60;;;;;;;-0.05;94.41;95239.49;108932;1295;22137;-93
2023/01/17 04:47:23;;;;;;;32.90;30.00;;;;;;;0.05;94.14;95238.08;109493;1295;22170;-93
2023/01/17 04:49:52;;;;;;;37.00;33.70;;;;;;;0.04;93.96;95237.52;109261;1295;22157;-93
2023/01/17 04:55:22;;;;;;;38.10;34.70;;;;;;;-0.09;94.02;95233.96;109652;1281;22263;-94
2023/01/17 04:57:50;;;;;;;35.40;32.30;;;;;;;-0.17;94.03;95230.52;109577;1292;22145;-91
2023/01/17 05:00:19;;;;;;;36.50;33.20;;;;;;;-0.20;93.87;95234.62;109206;1288;22289;-93
2023/01/17 05:02:50;;;;;;;34.80;31.60;;;;;;;-0.22;94.05;95238.55;109502;1292;22297;-95
2023/01/17 05:05:19;;;;;;;32.10;29.10;;;;;;;-0.20;94.24;95240.70;109730;1291;22168;-94
2023/01/17 05:07:55;;;;;;;38.40;35.00;;;;;;;-0.15;94.33;95243.08;109289;1292;22175;-95
2023/01/17 05:17:01;;;;;;;37.20;33.80;;;;;;;0.11;95.19;95238.37;95094;1285;22368;-95
2023/01/17 05:30:58;;;;;;;35.80;32.50;;;;;;;0.35;95.37;95241.67;109439;1282;22171;-93
2023/01/17 05:33:42;;;;;;;32.00;28.80;;;;;;;0.30;95.58;95248.20;109564;1294;22866;-94
2023/01/17 05:36:12;;;;;;;31.90;29.10;;;;;;;0.35;95.54;95247.93;109559;1294;22152;-92
2023/01/17 05:38:40;;;;;;;31.50;28.40;;;;;;;0.45;95.57;95246.86;109496;1294;22251;-95
2023/01/17 05:41:09;;;;;;;29.80;27.20;;;;;;;0.55;95.53;95243.40;109418;1294;22257;-94
2023/01/17 05:43:37;;;;;;;30.40;27.60;;;;;;;0.66;95.78;95240.69;109321;1295;22312;-96
2023/01/17 05:46:30;;;;;;;30.30;27.50;;;;;;;0.73;95.80;95243.33;109007;1295;22307;-92
2023/01/17 05:48:59;;;;;;;31.40;28.70;;;;;;;0.79;95.87;95238.35;109414;1279;22221;-94
2023/01/17 05:51:28;;;;;;;32.50;29.60;;;;;;;0.87;95.96;95237.16;109384;1295;22242;-96
2023/01/17 05:53:56;;;;;;;28.80;26.30;;;;;;;0.96;96.04;95239.27;109291;1295;22187;-93
2023/01/17 05:56:24;;;;;;;23.60;21.40;;;;;;;1.08;95.95;95236.18;109223;1295;22152;-92
2023/01/17 05:58:52;;;;;;;25.40;22.80;;;;;;;1.17;95.71;95233.62;108854;1295;22141;-94
2023/01/17 06:01:20;;;;;;;25.00;22.60;;;;;;;1.17;95.99;95228.71;108917;1292;22321;-91
2023/01/17 06:03:49;;;;;;;33.20;30.20;;;;;;;1.18;96.04;95229.73;109184;1296;22210;-92
2023/01/17 06:06:19;;;;;;;28.70;26.20;;;;;;;1.21;96.28;95238.30;108994;1297;22178;-93
2023/01/17 06:08:47;;;;;;;30.30;27.70;;;;;;;1.26;96.30;95245.61;108936;1296;22176;-93
2023/01/17 06:11:17;;;;;;;32.70;29.60;;;;;;;1.26;96.19;95247.25;108829;1295;22150;-90
2023/01/17 06:13:47;;;;;;;44.80;40.30;;;;;;;1.34;96.01;95255.95;108903;1294;22120;-91
2023/01/17 06:17:06;;;;;;;33.20;29.80;;;;;;;1.39;95.77;95255.38;108907;1295;22163;-91
2023/01/17 06:19:35;;;;;;;33.10;29.90;;;;;;;1.33;95.47;95264.40;109131;1295;22188;-89
2023/01/17 06:22:04;;;;;;;31.20;28.30;;;;;;;1.29;95.68;95265.63;109117;1294;22192;-88
2023/01/17 06:24:32;;;;;;;42.40;38.60;;;;;;;1.19;95.62;95261.55;109054;1279;22286;-92
2023/01/17 06:27:01;;;;;;;43.80;39.90;;;;;;;1.19;96.09;95264.29;109202;1292;22178;-92
2023/01/17 06:29:29;;;;;;;36.60;33.10;;;;;;;1.24;96.30;95264.23;109333;1290;22283;-92
2023/01/17 06:31:57;;;;;;;34.30;31.00;;;;;;;1.28;96.41;95264.37;108986;1282;22899;-91
2023/01/17 06:34:28;;;;;;;33.50;30.50;;;;;;;1.34;96.17;95266.25;108982;1296;22211;-91
2023/01/17 06:36:56;;;;;;;29.90;27.10;;;;;;;1.41;96.30;95269.25;109156;1296;22256;-87
2023/01/17 06:39:25;;;;;;;34.60;31.60;;;;;;;1.45;95.78;95271.55;109392;1264;22220;-94
2023/01/17 06:41:53;;;;;;;29.80;27.10;;;;;;;1.44;95.92;95273.06;109115;1294;22193;-91
2023/01/17 06:48:10;;;;;;;23.10;21.20;;;;;;;1.51;96.24;95279.14;109200;1294;22199;-89
2023/01/17 06:50:38;;;;;;;28.70;26.20;;;;;;;1.51;95.84;95279.05;109191;1292;22224;-86
2023/01/17 06:53:06;;;;;;;25.50;23.10;;;;;;;1.48;95.57;95280.34;109239;1294;22669;-84
2023/01/17 06:55:38;;;;;;;24.30;22.10;;;;;;;1.44;95.62;95286.66;108938;1294;22792;-87
2023/01/17 06:58:08;;;;;;;30.30;27.60;;;;;;;1.48;95.60;95286.61;108910;1294;23042;-88
2023/01/17 07:00:36;;;;;;;23.50;21.40;;;;;;;1.54;95.79;95284.48;109104;1294;22262;-88
2023/01/17 07:03:19;;;;;;;22.70;20.70;;;;;;;1.62;96.02;95283.28;108872;1294;22179;-88
2023/01/17 07:05:48;;;;;;;22.60;20.70;;;;;;;1.69;96.27;95285.31;108890;1282;22394;-86
2023/01/17 07:08:18;;;;;;;23.30;21.30;;;;;;;1.74;96.45;95290.27;108891;1294;22249;-87
2023/01/17 07:10:47;;;;;;;21.80;19.80;;;;;;;1.79;96.21;95292.60;108880;1294;22221;-87
2023/01/17 07:13:15;;;;;;;21.70;19.60;;;;;;;1.85;95.97;95291.31;109087;1294;22249;-87
2023/01/17 07:15:43;;;;;;;38.60;32.50;;;;;;;1.92;95.90;95290.13;109106;1291;22204;-87
2023/01/17 07:18:11;;;;;;;41.40;36.30;;;;;;;1.93;95.68;95295.00;109092;1286;22386;-86
2023/01/17 07:20:42;;;;;;;46.70;39.40;;;;;;;1.80;95.35;95297.67;109103;1288;23035;-85
2023/01/17 07:23:11;;;;;;;39.70;35.00;;;;;;;1.71;95.54;95298.66;108907;1289;22243;-90
2023/01/17 07:25:39;;;;;;;36.50;31.40;;;;;;;1.66;95.59;95295.10;108933;1294;22318;-85
2023/01/17 07:28:07;;;;;;;37.10;31.80;;;;;;;1.64;95.67;95297.97;109083;1294;22261;-91
2023/01/17 07:30:36;;;;;;;33.30;29.00;;;;;;;1.67;95.71;95297.05;108987;1294;22188;-91
2023/01/17 07:33:04;;;;;;;159.80;116.10;;;;;;;1.74;95.67;95297.66;109049;1289;22243;-92
2023/01/17 07:35:32;;;;;;;40.00;32.70;;;;;;;1.80;95.55;95296.30;109324;1294;22253;-93
2023/01/17 07:38:00;;;;;;;25.80;23.20;;;;;;;1.78;95.45;95296.35;109323;1276;22958;-91
2023/01/17 07:40:28;;;;;;;34.00;29.30;;;;;;;1.75;95.24;95303.36;109371;1294;22248;-90
2023/01/17 07:43:12;;;;;;;63.00;44.60;;;;;;;1.73;95.59;95304.98;109283;1294;22236;-92
2023/01/17 07:45:45;;;;;;;43.80;34.60;;;;;;;1.70;95.32;95308.26;108916;1295;22421;-91
2023/01/17 07:48:13;;;;;;;33.60;27.80;;;;;;;1.72;95.40;95314.40;109363;1295;22261;-91
2023/01/17 07:50:41;;;;;;;34.20;30.60;;;;;;;1.75;95.41;95317.60;109157;1296;22349;-90
2023/01/17 07:53:10;;;;;;;49.70;42.90;;;;;;;1.81;95.63;95324.50;108875;1295;22463;-89
2023/01/17 07:55:38;;;;;;;49.80;44.70;;;;;;;1.89;95.70;95328.82;109112;1295;22131;-92
2023/01/17 07:58:06;;;;;;;63.70;57.20;;;;;;;1.95;95.87;95326.48;109154;1287;22133;-93
2023/01/17 08:00:34;;;;;;;62.70;49.80;;;;;;;2.00;95.86;95330.05;109271;1294;22360;-89
2023/01/17 08:03:04;;;;;;;50.00;44.70;;;;;;;2.00;95.57;95331.70;108910;1278;22348;-91
2023/01/17 08:05:32;;;;;;;53.60;47.70;;;;;;;2.00;95.41;95333.77;109248;1286;22273;-90
2023/01/17 08:08:00;;;;;;;52.50;47.20;;;;;;;1.99;95.17;95332.70;109189;1294;22139;-91
2023/01/17 08:10:28;;;;;;;51.30;45.80;;;;;;;2.04;95.52;95342.00;109262;1294;22184;-91
2023/01/17 08:12:56;;;;;;;59.80;53.50;;;;;;;2.06;95.44;95342.02;109266;1294;22134;-92
2023/01/17 08:15:25;;;;;;;52.20;47.00;;;;;;;2.04;95.22;95344.52;109324;1287;22241;-90
2023/01/17 08:17:53;;;;;;;62.60;55.90;;;;;;;2.03;95.35;95342.00;109314;1291;22233;-88
2023/01/17 08:20:21;;;;;;;60.00;53.80;;;;;;;2.07;95.37;95344.45;109358;1293;22200;-89
2023/01/17 08:22:53;;;;;;;51.50;46.20;;;;;;;2.13;95.37;95343.16;109568;1294;22239;-90
2023/01/17 08:25:25;;;;;;;63.10;56.10;;;;;;;2.22;95.44;95351.45;109639;1294;22277;-91
2023/01/17 08:27:57;;;;;;;64.40;57.50;;;;;;;2.29;95.26;95348.16;109206;1294;22240;-92
2023/01/17 08:30:26;;;;;;;59.40;53.40;;;;;;;2.28;95.38;95348.91;109509;1294;22215;-90
2023/01/17 08:32:54;;;;;;;73.80;66.60;;;;;;;2.28;95.30;95350.25;109522;1294;22232;-94
2023/01/17 08:35:22;;;;;;;58.40;52.50;;;;;;;2.27;95.27;95351.28;109538;1273;22289;-92
2023/01/17 08:37:53;;;;;;;53.50;48.20;;;;;;;2.30;95.38;95354.60;109515;1294;22877;-91
2023/01/17 08:40:22;;;;;;;40.50;36.60;;;;;;;2.30;94.91;95353.17;109486;1294;22239;-92
2023/01/17 08:42:59;;;;;;;60.20;54.20;;;;;;;2.33;95.18;95352.39;109276;1294;22135;-90
2023/01/17 08:45:27;;;;;;;51.50;46.60;;;;;;;2.35;95.28;95350.55;109590;1292;22205;-92
2023/01/17 08:47:57;;;;;;;40.70;36.80;;;;;;;2.38;95.54;95358.17;109463;1286;22368;-85
2023/01/17 08:50:26;;;;;;;64.50;58.80;;;;;;;2.40;95.09;95367.52;109321;1272;22430;-86
2023/01/17 08:52:58;;;;;;;41.90;37.70;;;;;;;2.40;95.34;95367.67;109688;1272;22139;-92
2023/01/17 08:55:28;;;;;;;55.70;50.70;;;;;;;2.46;95.32;95370.70;109705;1285;22350;-91
2023/01/17 08:57:56;;;;;;;50.00;44.90;;;;;;;2.54;95.43;95369.16;109539;1286;22769;-94
2023/01/17 09:00:25;;;;;;;51.50;46.70;;;;;;;2.60;95.56;95372.27;109576;1291;22251;-91
2023/01/17 09:02:53;;;;;;;44.90;40.80;;;;;;;2.67;95.18;95370.47;109633;1286;22235;-91
2023/01/17 09:05:30;;;;;;;46.40;42.10;;;;;;;2.70;95.20;95375.16;109609;1263;22320;31
2023/01/17 09:08:03;;;;;;;41.30;37.30;;;;;;;2.71;94.57;95377.48;109381;1272;22507;31
2023/01/17 09:10:37;;;;;;;32.80;29.50;;;;;;;2.73;94.50;95380.83;108698;1265;22470;-88
2023/01/17 09:13:12;;;;;;;32.20;29.30;;;;;;;2.78;94.92;95386.16;103983;1269;22529;-84
2023/01/17 09:15:40;;;;;;;32.20;29.20;;;;;;;2.86;94.80;95377.08;101720;1268;22195;-85
2023/01/17 09:18:08;;;;;;;33.90;30.70;;;;;;;2.89;94.35;95380.48;109826;1286;22261;-86
2023/01/17 09:20:36;;;;;;;39.60;35.90;;;;;;;2.89;94.20;95383.77;109808;1292;22603;-87
2023/01/17 09:23:12;;;;;;;33.80;30.40;;;;;;;2.90;94.25;95384.18;109732;1263;22379;-88
2023/01/17 09:25:43;;;;;;;37.00;33.30;;;;;;;2.91;94.59;95382.02;109681;1268;22237;-88
2023/01/17 09:28:11;;;;;;;38.80;35.20;;;;;;;2.96;94.07;95381.56;109780;1292;22374;-86
2023/01/17 09:30:48;;;;;;;36.20;32.70;;;;;;;3.00;93.86;95379.31;109861;1262;22097;31
2023/01/17 09:33:16;;;;;;;37.40;33.80;;;;;;;3.05;93.97;95381.08;109609;1269;24669;-91
2023/01/17 09:36:05;;;;;;;43.00;39.00;;;;;;;3.11;93.96;95380.52;109708;1266;22263;31
2023/01/17 09:42:26;;;;;;;49.30;44.60;;;;;;;3.20;94.11;95390.69;87358;1273;24132;31
2023/01/17 09:45:08;;;;;;;41.00;36.80;;;;;;;3.22;93.33;95393.44;109207;1282;22902;-87
2023/01/17 09:47:47;;;;;;;36.80;33.40;;;;;;;3.24;92.36;95394.04;109038;1271;24080;-90
2023/01/17 09:53:27;;;;;;;53.30;48.20;;;;;;;3.25;92.99;95390.97;109314;1269;23751;31
2023/01/17 09:58:57;;;;;;;34.70;31.50;;;;;;;3.29;91.10;95392.91;109293;1297;23101;-93
2023/01/17 10:02:15;;;;;;;41.00;37.00;;;;;;;3.24;91.73;95381.90;109182;1270;22383;-88
2023/01/17 10:05:01;;;;;;;33.90;30.50;;;;;;;3.36;91.09;95394.08;109334;1297;22836;-93
2023/01/17 10:08:10;;;;;;;37.40;34.00;;;;;;;3.30;91.20;95389.79;109293;1269;22450;31
2023/01/17 10:11:41;;;;;;;48.70;44.20;;;;;;;3.35;92.13;95393.95;109024;1274;22149;-88
2023/01/17 10:14:25;;;;;;;44.90;40.50;;;;;;;3.41;91.02;95392.66;108716;1300;22175;-87
2023/01/17 10:17:23;;;;;;;39.80;36.10;;;;;;;3.44;91.10;95393.64;108879;1283;23833;31
2023/01/17 10:23:26;;;;;;;45.90;41.90;;;;;;;3.58;91.95;95386.27;108979;1297;22327;-90
2023/01/17 10:25:58;;;;;;;50.20;45.30;;;;;;;3.65;91.76;95386.51;109249;1297;22256;-87
2023/01/17 10:28:40;;;;;;;50.60;45.80;;;;;;;3.71;91.49;95387.03;108875;1272;23764;31
2023/01/17 10:31:23;;;;;;;45.30;41.00;;;;;;;3.76;91.34;95386.34;109116;1295;22218;-87
2023/01/17 10:37:21;;;;;;;56.40;50.80;;;;;;;3.94;91.39;95394.85;109323;1265;22631;31
2023/01/17 10:45:53;;;;;;;43.30;39.20;;;;;;;4.03;89.33;95397.29;109355;1270;22182;-87
2023/01/17 10:48:41;;;;;;;51.30;44.80;;;;;;;3.99;89.68;95404.44;109137;1272;22451;-92
2023/01/17 10:51:18;;;;;;;51.40;46.40;;;;;;;4.05;89.88;95400.22;109195;1296;23099;-85
2023/01/17 10:54:13;;;;;;;51.50;46.80;;;;;;;4.15;90.31;95404.86;109320;1296;22240;-90
2023/01/17 10:56:42;;;;;;;44.80;40.70;;;;;;;4.23;90.31;95409.08;109525;1295;21936;-88
2023/01/17 10:59:30;;;;;;;34.60;31.40;;;;;;;4.30;88.58;95411.77;109426;1270;22255;-92
2023/01/17 11:08:16;;;;;;;32.80;29.60;;;;;;;4.54;87.44;95417.11;109175;1270;22441;-91
2023/01/17 11:10:56;;;;;;;36.60;32.80;;;;;;;4.56;87.28;95422.44;109207;1267;22170;31
2023/01/17 11:13:36;;;;;;;34.00;30.70;;;;;;;4.63;86.89;95417.20;108948;1272;22429;31
2023/01/17 11:16:15;;;;;;;32.10;28.80;;;;;;;4.72;86.48;95420.39;109303;1270;22229;-91
2023/01/17 11:19:26;;;;;;;32.70;29.40;;;;;;;4.84;85.25;95428.88;109306;1267;22469;31
2023/01/17 11:22:04;;;;;;;42.60;37.90;;;;;;;4.94;84.17;95433.52;109300;1269;22261;-91
2023/01/17 11:24:46;;;;;;;32.00;28.90;;;;;;;5.03;81.98;95433.02;109005;1296;22200;-85
2023/01/17 11:27:29;;;;;;;45.30;40.50;;;;;;;5.08;82.64;95433.20;108894;1272;22424;-88
2023/01/17 11:30:14;;;;;;;35.50;31.80;;;;;;;5.24;82.34;95434.66;109317;1269;22403;31
2023/01/17 11:32:56;;;;;;;26.40;22.00;;;;;;;6.45;81.56;95425.69;92374;1271;5004281;-96
2023/01/17 11:35:28;;;;;;;20.50;17.80;;;;;;;7.93;80.18;95418.41;108956;1273;22254;-90
2023/01/17 11:37:58;;;;;;;19.70;17.60;;;;;;;8.56;77.50;95419.77;109194;1297;22266;-94
2023/01/17 11:40:36;;;;;;;19.70;17.70;;;;;;;8.58;76.37;95416.66;108972;1297;22235;-92
2023/01/17 11:43:10;;;;;;;18.20;15.60;;;;;;;8.52;75.63;95416.44;109218;1297;22242;-92
2023/01/17 11:49:49;;;;;;;19.90;16.00;;;;;;;9.38;71.23;95409.77;109196;1297;22235;-92
2023/01/17 11:52:20;;;;;;;20.00;17.20;;;;;;;10.01;70.20;95411.42;109223;1297;22292;-94
2023/01/17 11:54:49;;;;;;;20.40;17.50;;;;;;;10.67;67.46;95408.14;109336;1269;22198;-94
2023/01/17 11:57:31;;;;;;;19.30;17.30;;;;;;;11.23;65.72;95402.09;109086;1295;22943;-93
2023/01/17 12:00:22;;;;;;;20.20;18.10;;;;;;;11.85;65.08;95401.66;109181;1295;22251;-92
2023/01/17 12:03:02;;;;;;;19.50;17.40;;;;;;;12.37;64.06;95399.32;109229;1295;22294;-94
2023/01/17 12:05:47;;;;;;;19.80;17.50;;;;;;;12.60;62.52;95397.60;109323;1296;22307;-90
2023/01/17 12:08:27;;;;;;;13.30;11.00;;;;;;;12.59;59.56;95391.27;109302;1296;22302;-93
2023/01/17 12:10:57;;;;;;;12.20;10.10;;;;;;;12.80;60.10;95388.34;109314;1296;22169;-91
2023/01/17 12:14:01;;;;;;;11.00;8.70;;;;;;;12.88;55.86;95385.86;109296;1296;22223;-92
2023/01/17 12:16:48;;;;;;;9.20;7.60;;;;;;;13.16;53.17;95387.45;109031;1295;22256;-90
2023/01/17 12:22:51;;;;;;;11.40;8.40;;;;;;;12.23;54.63;95377.73;109029;1297;22998;-94
2023/01/17 12:25:53;;;;;;;14.90;11.30;;;;;;;12.81;51.48;95385.20;109130;1297;22853;-90
2023/01/17 12:33:55;;;;;;;9.70;8.70;;;;;;;13.74;47.04;95382.07;109005;1297;22226;-92
2023/01/17 12:36:31;;;;;;;255.60;165.10;;;;;;;13.71;49.44;95376.42;109137;1297;22317;-91
2023/01/17 12:39:06;;;;;;;15.10;13.50;;;;;;;14.09;46.15;95374.85;109137;1297;22286;-92
2023/01/17 12:41:44;;;;;;;32.30;28.80;;;;;;;13.91;46.36;95374.24;109151;1296;22247;-90
2023/01/17 12:44:16;;;;;;;18.20;13.80;;;;;;;14.04;47.52;95370.19;109178;1296;22157;-91
2023/01/17 12:46:54;;;;;;;11.00;9.20;;;;;;;14.34;44.71;95373.67;109211;1295;23074;-91
2023/01/17 12:49:47;;;;;;;15.10;13.50;;;;;;;14.25;45.76;95365.91;109061;1296;22272;-92
2023/01/17 12:52:23;;;;;;;10.60;8.80;;;;;;;14.54;45.37;95374.40;108992;1296;22465;-91
2023/01/17 12:55:01;;;;;;;11.80;8.50;;;;;;;14.63;43.07;95386.04;108886;1296;23090;-91
2023/01/17 13:00:37;;;;;;;37.40;29.90;;;;;;;14.43;44.15;95389.94;108996;1297;22228;-92
2023/01/17 13:03:45;;;;;;;18.90;17.00;;;;;;;14.65;43.58;95389.91;108958;1297;22337;-90
2023/01/17 13:06:23;;;;;;;41.60;37.40;;;;;;;14.53;42.50;95390.82;108885;1297;22797;-85
2023/01/17 13:08:56;;;;;;;7.30;6.60;;;;;;;14.59;42.04;95405.46;108819;1295;22280;-89
2023/01/17 13:11:44;;;;;;;11.50;9.70;;;;;;;14.50;40.73;95404.28;108862;1297;23185;-87
2023/01/17 13:14:12;;;;;;;13.20;11.90;;;;;;;14.27;40.39;95407.16;108603;1297;22971;-91
2023/01/17 13:17:11;;;;;;;45.10;40.20;;;;;;;14.15;41.22;95405.11;108946;1297;22291;-94
2023/01/17 13:19:50;;;;;;;99.60;78.20;;;;;;;14.10;42.37;95405.02;108827;1297;22948;-89
2023/01/17 13:22:22;;;;;;;46.80;39.50;;;;;;;14.25;41.86;95407.54;108926;1297;22293;-90
2023/01/17 13:24:59;;;;;;;73.80;61.30;;;;;;;14.05;41.94;95406.02;108956;1297;22221;-91
2023/01/17 13:27:39;;;;;;;27.80;25.10;;;;;;;13.99;41.25;95407.99;109045;1297;22175;-92
2023/01/17 13:30:31;;;;;;;19.20;17.20;;;;;;;13.65;41.74;95412.88;108966;1295;22174;-90
2023/01/17 13:33:11;;;;;;;10.00;7.40;;;;;;;13.46;42.23;95409.92;109253;1291;21964;-90
2023/01/17 13:36:15;;;;;;;8.10;7.30;;;;;;;13.26;41.22;95410.55;109200;1297;22142;-91
2023/01/17 13:38:56;;;;;;;12.70;11.10;;;;;;;12.60;42.66;95407.71;109004;1297;22204;-93
2023/01/17 13:41:33;;;;;;;10.80;7.10;;;;;;;12.39;43.37;95411.75;108988;1297;22260;-92
2023/01/17 13:44:20;;;;;;;12.30;10.30;;;;;;;12.10;42.92;95415.84;109024;1297;22846;-91
2023/01/17 13:46:55;;;;;;;11.30;9.70;;;;;;;11.85;42.99;95417.63;108799;1297;22169;-91
2023/01/17 13:49:30;;;;;;;16.20;10.60;;;;;;;11.46;43.49;95423.13;108875;1297;23258;-94
2023/01/17 13:52:18;;;;;;;15.00;9.60;;;;;;;11.28;43.80;95433.89;108914;1295;22183;-95
2023/01/17 13:54:53;;;;;;;9.40;8.40;;;;;;;11.21;44.53;95432.63;109098;1297;22237;-93
2023/01/17 13:57:24;;;;;;;19.00;12.30;;;;;;;11.38;44.81;95435.50;108947;1297;22219;-90
2023/01/17 14:00:09;;;;;;;12.60;10.00;;;;;;;12.01;46.43;95433.16;109024;1297;22202;-90
2023/01/17 14:02:37;;;;;;;10.90;7.90;;;;;;;12.61;45.07;95436.13;108946;1297;22202;-93
2023/01/17 14:05:10;;;;;;;9.30;7.00;;;;;;;12.96;45.11;95439.05;109041;1297;22206;-93
2023/01/17 14:07:54;;;;;;;10.00;7.20;;;;;;;13.40;44.54;95446.74;109067;1285;22353;-93
2023/01/17 14:10:29;;;;;;;9.00;8.20;;;;;;;13.77;44.40;95460.48;109002;1297;22244;-90
2023/01/17 14:12:57;;;;;;;15.40;13.80;;;;;;;13.69;43.49;95467.41;109017;1297;22195;-90
2023/01/17 14:15:27;;;;;;;12.50;10.30;;;;;;;13.01;42.78;95466.59;108537;1297;22267;-92
2023/01/17 14:18:01;;;;;;;11.00;9.30;;;;;;;12.55;43.82;95466.16;108906;1297;23067;-89
2023/01/17 14:20:48;;;;;;;11.40;7.60;;;;;;;11.81;44.46;95466.14;108785;1297;22247;-88
2023/01/17 14:23:24;;;;;;;13.20;9.40;;;;;;;11.99;45.01;95466.54;108606;1297;22143;-90
2023/01/17 14:25:56;;;;;;;16.80;13.00;;;;;;;11.43;45.06;95470.14;108854;1297;22249;-89
2023/01/17 14:28:24;;;;;;;15.80;9.20;;;;;;;10.68;45.49;95474.56;108995;1297;22263;-89
2023/01/17 14:30:55;;;;;;;17.30;8.90;;;;;;;10.18;46.06;95483.63;108851;1297;23195;-90
2023/01/17 14:33:34;;;;;;;11.00;9.00;;;;;;;9.93;46.47;95495.04;108859;1297;22280;-91
2023/01/17 14:36:06;;;;;;;11.80;8.20;;;;;;;10.13;46.44;95501.06;108864;1297;22151;-89
2023/01/17 14:38:41;;;;;;;20.80;14.70;;;;;;;10.00;46.44;95509.79;108829;1297;22262;-91
2023/01/17 14:41:18;;;;;;;19.80;15.40;;;;;;;9.68;46.61;95514.48;108719;1290;22927;-86
2023/01/17 14:43:48;;;;;;;25.50;20.70;;;;;;;9.40;46.70;95521.52;108740;1292;22291;-89
2023/01/17 14:46:27;;;;;;;18.30;13.50;;;;;;;8.97;46.93;95528.41;108707;1297;22479;-90
2023/01/17 14:49:04;;;;;;;15.20;12.00;;;;;;;8.50;47.19;95526.35;108781;1298;22239;-90
2023/01/17 14:51:34;;;;;;;10.40;9.20;;;;;;;8.04;47.58;95525.29;108591;1298;22157;-91
2023/01/17 14:54:13;;;;;;;12.10;10.40;;;;;;;7.59;47.91;95525.20;109102;1291;21998;-86
2023/01/17 14:56:41;;;;;;;11.20;9.50;;;;;;;7.14;48.54;95530.04;109019;1298;22068;-87